Time;durP1;ratioP1;P1;durP2;ratioP2;P2;SDS_P1;SDS_P2;PMS_P1;PMS_P2;Temp;Humidity;BMP_temperature;BMP_pressure;BME280_temperature;BME280_humidity;BME280_pressure;Samples;Min_cycle;Max_cycle;Signal;HPM_P1;HPM_P2
2021/12/21 00:00:44;;;;;;;15.10;4.10;;;-1.30;99.90;;;;;;4996615;28;20384;-55
2021/12/21 00:03:09;;;;;;;10.90;3.80;;;-1.30;99.90;;;;;;4998050;28;20033;-55
2021/12/21 00:05:36;;;;;;;15.30;4.23;;;-1.30;99.90;;;;;;5000720;28;20027;-56
2021/12/21 00:08:04;;;;;;;15.47;4.27;;;-1.30;99.90;;;;;;4998124;28;20113;-52
2021/12/21 00:10:32;;;;;;;11.60;4.00;;;-1.30;99.90;;;;;;5003220;28;21708;-52
2021/12/21 00:13:04;;;;;;;13.17;4.60;;;-1.30;99.90;;;;;;5006584;28;20550;-58
2021/12/21 00:15:51;;;;;;;11.23;3.93;;;-1.40;99.90;;;;;;5000784;28;20081;-53
2021/12/21 00:18:34;;;;;;;9.13;4.47;;;-1.40;99.90;;;;;;4996256;28;20096;-58
2021/12/21 00:21:24;;;;;;;13.80;4.27;;;-1.40;99.90;;;;;;5001752;28;20045;-57
2021/12/21 00:23:54;;;;;;;11.93;4.77;;;-1.40;99.90;;;;;;5000706;28;20026;-55
2021/12/21 00:26:21;;;;;;;9.90;4.50;;;-1.50;99.90;;;;;;5000409;28;20033;-56
2021/12/21 00:28:57;;;;;;;11.30;4.90;;;-1.50;99.90;;;;;;5004871;28;20038;-57
2021/12/21 00:31:25;;;;;;;9.23;4.07;;;-1.50;99.90;;;;;;5004940;28;20511;-58
2021/12/21 00:33:51;;;;;;;8.97;4.33;;;-1.50;99.90;;;;;;5006219;28;20042;-56
2021/12/21 00:36:20;;;;;;;14.07;4.97;;;-1.60;99.90;;;;;;5005499;28;20116;-56
2021/12/21 00:38:47;;;;;;;15.07;4.67;;;-1.60;99.90;;;;;;5006056;28;20034;-57
2021/12/21 00:41:14;;;;;;;11.53;4.43;;;-1.60;99.90;;;;;;5010130;28;20036;-56
2021/12/21 00:43:40;;;;;;;11.60;4.37;;;-1.60;99.90;;;;;;5009689;28;20096;-56
2021/12/21 00:46:05;;;;;;;14.20;4.37;;;-1.60;99.90;;;;;;5010209;28;20492;-58
2021/12/21 00:48:32;;;;;;;19.47;4.87;;;-1.60;99.90;;;;;;5010874;28;20569;-57
2021/12/21 00:51:01;;;;;;;12.10;4.83;;;-1.60;99.90;;;;;;5011497;28;20037;-56
2021/12/21 00:53:28;;;;;;;11.03;4.37;;;-1.60;99.90;;;;;;5010078;28;20038;-55
2021/12/21 00:55:54;;;;;;;7.17;4.03;;;-1.60;99.90;;;;;;5009880;28;20045;-57
2021/12/21 00:58:19;;;;;;;11.27;4.63;;;-1.60;99.90;;;;;;5009417;28;20041;-58
2021/12/21 01:00:46;;;;;;;12.90;4.37;;;-1.70;99.90;;;;;;5008702;28;20053;-54
2021/12/21 01:03:14;;;;;;;15.27;6.07;;;-1.70;99.90;;;;;;5008168;28;20068;-58
2021/12/21 01:05:52;;;;;;;10.27;4.70;;;-1.70;99.90;;;;;;5009231;28;20464;-54
2021/12/21 01:08:22;;;;;;;13.73;4.80;;;-1.70;99.90;;;;;;5006588;28;20560;-58
2021/12/21 01:11:05;;;;;;;10.50;5.50;;;-1.80;99.90;;;;;;5009950;28;20420;-56
2021/12/21 01:13:51;;;;;;;13.77;5.03;;;-1.80;99.90;;;;;;5008909;28;20778;-59
2021/12/21 01:21:48;;;;;;;17.57;6.47;;;-1.90;99.90;;;;;;5006784;28;20077;-58
2021/12/21 01:30:09;;;;;;;15.33;4.87;;;-2.00;99.90;;;;;;5009364;28;20036;-54
2021/12/21 01:35:35;;;;;;;10.30;3.87;;;-1.90;99.90;;;;;;5000701;28;20132;-57
2021/12/21 01:38:15;;;;;;;15.87;4.93;;;-1.90;99.90;;;;;;5008394;28;20034;-53
2021/12/21 01:40:52;;;;;;;11.00;5.47;;;-1.90;99.90;;;;;;5008247;28;20084;-53
2021/12/21 01:43:32;;;;;;;13.83;5.00;;;-1.90;99.90;;;;;;5009537;28;20033;-56
2021/12/21 01:51:27;;;;;;;11.50;4.17;;;-2.10;99.90;;;;;;5008973;28;20129;-57
2021/12/21 01:53:53;;;;;;;13.43;4.43;;;-2.10;99.90;;;;;;5008855;28;21818;-57
2021/12/21 01:56:20;;;;;;;13.00;4.80;;;-2.10;99.90;;;;;;5007926;28;20034;-58
2021/12/21 01:58:45;;;;;;;11.33;4.47;;;-2.10;99.90;;;;;;5008511;28;20029;-55
2021/12/21 02:01:16;;;;;;;11.60;4.33;;;-2.00;99.90;;;;;;5009717;28;20033;-53
2021/12/21 02:03:47;;;;;;;9.07;4.17;;;-2.10;99.90;;;;;;5007999;28;20041;-56
2021/12/21 02:06:15;;;;;;;13.63;5.47;;;-2.10;99.90;;;;;;5009117;28;20053;-56
2021/12/21 02:08:41;;;;;;;9.97;4.37;;;-2.10;99.90;;;;;;5010477;28;20103;-56
2021/12/21 02:11:06;;;;;;;10.33;4.43;;;-2.10;99.90;;;;;;5010685;28;20080;-56
2021/12/21 02:13:35;;;;;;;12.10;4.07;;;-2.10;99.90;;;;;;5008551;28;20034;-56
2021/12/21 02:16:01;;;;;;;20.27;4.63;;;-2.10;99.90;;;;;;5010138;28;20547;-56
2021/12/21 02:21:02;;;;;;;12.67;4.50;;;-2.10;99.90;;;;;;5008647;28;20395;-58
2021/12/21 02:23:34;;;;;;;14.43;4.47;;;-2.10;99.90;;;;;;5006926;28;20034;-55
2021/12/21 02:30:55;;;;;;;12.10;4.83;;;-2.20;99.90;;;;;;5003850;28;20025;-57
2021/12/21 02:33:22;;;;;;;13.10;4.80;;;-2.20;99.90;;;;;;4997792;28;20034;-56
2021/12/21 02:35:48;;;;;;;12.47;4.67;;;-2.20;99.90;;;;;;4996544;28;20026;-57
2021/12/21 02:38:13;;;;;;;14.83;6.17;;;-2.20;99.90;;;;;;5001651;28;20127;-55
2021/12/21 02:40:40;;;;;;;13.37;3.90;;;-2.10;99.90;;;;;;4998647;28;20030;-55
2021/12/21 02:43:08;;;;;;;9.50;4.40;;;-2.10;99.90;;;;;;5003594;28;20022;-57
2021/12/21 02:45:33;;;;;;;15.73;5.10;;;-2.10;99.90;;;;;;5001163;28;20396;-56
2021/12/21 02:47:59;;;;;;;10.67;3.67;;;-2.10;99.90;;;;;;5007969;28;20030;-56
2021/12/21 02:50:25;;;;;;;10.13;4.10;;;-2.10;99.90;;;;;;5010573;28;20045;-53
2021/12/21 02:52:51;;;;;;;10.77;4.00;;;-2.10;99.90;;;;;;5007517;28;20034;-56
2021/12/21 02:55:18;;;;;;;11.67;4.60;;;-2.10;99.90;;;;;;5008876;28;20053;-55
2021/12/21 02:57:43;;;;;;;10.33;4.70;;;-2.10;99.90;;;;;;5007477;28;20104;-56
2021/12/21 03:00:11;;;;;;;12.43;4.13;;;-2.20;99.90;;;;;;5008350;28;20910;-55
2021/12/21 03:02:37;;;;;;;10.43;4.60;;;-2.30;99.90;;;;;;5005598;28;20037;-56
2021/12/21 03:05:04;;;;;;;16.97;4.53;;;-2.30;99.90;;;;;;5007240;28;20062;-59
2021/12/21 03:10:16;;;;;;;9.95;3.22;;;-2.40;99.90;;;;;;5006113;28;20104;-57
2021/12/21 03:15:30;;;;;;;7.27;3.70;;;-2.40;99.90;;;;;;5006183;28;20064;-58
2021/12/21 03:17:57;;;;;;;9.47;4.23;;;-2.40;99.90;;;;;;5006188;28;20676;-58
2021/12/21 03:20:24;;;;;;;14.63;4.37;;;-2.50;99.90;;;;;;5007126;28;20038;-59
2021/12/21 03:22:50;;;;;;;12.27;4.00;;;-2.50;99.90;;;;;;5005071;28;20030;-56
2021/12/21 03:25:17;;;;;;;10.97;3.30;;;-2.40;99.90;;;;;;5002999;28;20127;-57
2021/12/21 03:27:42;;;;;;;10.07;4.30;;;-2.50;99.90;;;;;;4998357;28;20026;-60
2021/12/21 03:30:12;;;;;;;11.50;4.23;;;-2.40;99.90;;;;;;5010380;28;20129;-58
2021/12/21 03:32:38;;;;;;;16.47;4.97;;;-2.50;99.90;;;;;;5002996;28;20038;-62
2021/12/21 03:35:05;;;;;;;12.20;4.73;;;-2.50;99.90;;;;;;5003209;28;20026;-57
2021/12/21 03:37:31;;;;;;;9.70;4.77;;;-2.50;99.90;;;;;;5006116;28;20512;-56
2021/12/21 03:39:58;;;;;;;15.20;5.23;;;-2.60;99.90;;;;;;5006650;28;20030;-56
2021/12/21 03:42:24;;;;;;;15.23;4.47;;;-2.60;99.90;;;;;;5010029;28;20033;-57
2021/12/21 03:44:50;;;;;;;10.80;4.27;;;-2.60;99.90;;;;;;5011645;28;20033;-59
2021/12/21 03:47:17;;;;;;;7.93;4.10;;;-2.60;99.90;;;;;;5011797;28;20021;-55
2021/12/21 03:52:15;;;;;;;16.70;4.70;;;-2.60;99.90;;;;;;5009623;28;20663;-57
2021/12/21 03:54:44;;;;;;;10.80;4.77;;;-2.60;99.90;;;;;;5008916;28;20022;-53
2021/12/21 03:57:11;;;;;;;13.57;4.57;;;-2.60;99.90;;;;;;5009746;28;20521;-59
2021/12/21 03:59:37;;;;;;;9.87;4.20;;;-2.60;99.90;;;;;;5007663;28;20038;-57
2021/12/21 04:02:03;;;;;;;12.60;4.90;;;-2.70;99.90;;;;;;5010268;28;20026;-57
2021/12/21 04:04:28;;;;;;;10.60;4.10;;;-2.70;99.90;;;;;;5005517;28;20061;-57
2021/12/21 04:06:54;;;;;;;9.20;4.60;;;-2.70;99.90;;;;;;5010181;28;21532;-58
2021/12/21 04:09:20;;;;;;;12.47;4.57;;;-2.60;99.90;;;;;;5010721;28;20037;-55
2021/12/21 04:11:46;;;;;;;10.90;4.37;;;-2.60;99.90;;;;;;5009987;28;20037;-56
2021/12/21 04:14:12;;;;;;;14.57;4.73;;;-2.60;99.90;;;;;;5011203;28;20037;-57
2021/12/21 04:16:38;;;;;;;9.23;4.53;;;-2.70;99.90;;;;;;5011197;28;20030;-55
2021/12/21 04:19:04;;;;;;;10.23;4.40;;;-2.70;99.90;;;;;;5011597;28;20752;-57
2021/12/21 04:21:30;;;;;;;9.53;4.50;;;-2.70;99.90;;;;;;5009456;28;20041;-56
2021/12/21 04:23:56;;;;;;;11.10;3.83;;;-2.70;99.90;;;;;;5008294;28;20029;-58
2021/12/21 04:26:22;;;;;;;10.10;4.40;;;-2.80;99.90;;;;;;5009215;28;20391;-57
2021/12/21 04:28:48;;;;;;;10.03;3.83;;;-2.80;99.90;;;;;;5008170;28;20088;-54
2021/12/21 04:31:14;;;;;;;10.97;3.90;;;-2.80;99.90;;;;;;5009062;28;20392;-56
2021/12/21 04:33:44;;;;;;;11.13;3.90;;;-2.80;99.90;;;;;;5008643;28;20034;-56
2021/12/21 04:36:11;;;;;;;9.60;4.50;;;-2.90;99.90;;;;;;5009954;28;20034;-57
2021/12/21 04:38:40;;;;;;;8.63;3.80;;;-2.90;99.90;;;;;;5006536;28;20079;-56
2021/12/21 04:41:14;;;;;;;9.87;3.50;;;-2.90;99.90;;;;;;5010043;28;20037;-56
2021/12/21 04:43:41;;;;;;;6.50;3.60;;;-2.90;99.90;;;;;;5007698;28;20041;-58
2021/12/21 04:46:06;;;;;;;9.10;3.30;;;-2.90;99.90;;;;;;5007547;28;20040;-57
2021/12/21 04:48:32;;;;;;;7.83;3.17;;;-3.00;99.90;;;;;;5008305;28;20459;-57
2021/12/21 04:50:58;;;;;;;9.60;4.10;;;-3.00;99.90;;;;;;5005986;28;20071;-56
2021/12/21 04:53:24;;;;;;;8.70;3.53;;;-3.00;99.90;;;;;;5007937;28;20025;-57
2021/12/21 04:55:50;;;;;;;9.07;3.83;;;-3.00;99.90;;;;;;5008404;28;20113;-59
2021/12/21 04:58:16;;;;;;;10.53;3.77;;;-3.00;99.90;;;;;;5009199;28;20030;-56
2021/12/21 05:00:42;;;;;;;7.50;3.67;;;-3.10;99.90;;;;;;5007863;28;20037;-59
2021/12/21 05:03:08;;;;;;;7.23;4.53;;;-3.00;99.90;;;;;;5009324;28;20030;-58
2021/12/21 05:05:34;;;;;;;9.97;4.37;;;-3.00;99.90;;;;;;5008727;28;20026;-61
2021/12/21 05:08:11;;;;;;;11.90;4.70;;;-3.00;99.90;;;;;;5003698;28;20694;-58
2021/12/21 05:10:52;;;;;;;7.80;3.40;;;-3.10;99.90;;;;;;5007521;28;20117;-57
2021/12/21 05:13:20;;;;;;;9.27;3.20;;;-3.10;99.90;;;;;;5007425;28;20037;-60
2021/12/21 05:15:46;;;;;;;5.97;3.07;;;-3.10;99.90;;;;;;5004100;28;20038;-56
2021/12/21 05:18:13;;;;;;;12.40;3.60;;;-3.10;99.90;;;;;;5008006;28;20044;-58
2021/12/21 05:20:40;;;;;;;13.23;4.40;;;-3.00;99.90;;;;;;5008395;28;20467;-60
2021/12/21 05:23:07;;;;;;;8.03;3.80;;;-3.00;99.90;;;;;;5005038;28;20087;-58
2021/12/21 05:25:32;;;;;;;8.70;3.40;;;-2.90;99.90;;;;;;5008823;28;20484;-55
2021/12/21 05:27:58;;;;;;;11.00;3.87;;;-2.90;99.90;;;;;;5006410;28;20038;-58
2021/12/21 05:30:25;;;;;;;12.67;4.00;;;-3.00;99.90;;;;;;5008293;28;20034;-56
2021/12/21 05:32:51;;;;;;;7.40;3.37;;;-3.00;99.90;;;;;;5007458;28;20112;-58
2021/12/21 05:35:17;;;;;;;10.10;3.93;;;-3.00;99.90;;;;;;5006641;28;20169;-57
2021/12/21 05:37:43;;;;;;;10.27;4.23;;;-3.00;99.90;;;;;;5008075;28;20026;-58
2021/12/21 05:40:15;;;;;;;10.00;3.80;;;-3.10;99.90;;;;;;5008656;28;20022;-58
2021/12/21 05:42:42;;;;;;;9.50;3.67;;;-3.10;99.90;;;;;;5003661;28;20080;-56
2021/12/21 05:45:10;;;;;;;10.63;3.97;;;-3.10;99.90;;;;;;5006450;28;20033;-56
2021/12/21 05:47:36;;;;;;;10.57;3.77;;;-3.10;99.90;;;;;;5006558;28;20037;-57
2021/12/21 05:50:04;;;;;;;8.00;4.00;;;-3.10;99.90;;;;;;5007241;28;20038;-58
2021/12/21 05:52:30;;;;;;;7.87;3.60;;;-3.20;99.90;;;;;;5006903;28;20368;-59
2021/12/21 05:54:55;;;;;;;8.33;3.60;;;-3.20;99.90;;;;;;5008026;28;20064;-58
2021/12/21 05:57:21;;;;;;;11.83;4.30;;;-3.20;99.90;;;;;;5008201;28;20104;-59
2021/12/21 05:59:46;;;;;;;10.70;4.10;;;-3.20;99.90;;;;;;5007557;28;20041;-59
2021/12/21 06:02:12;;;;;;;8.40;3.90;;;-3.20;99.90;;;;;;5007212;28;20377;-55
2021/12/21 06:04:37;;;;;;;8.37;3.30;;;-3.20;99.90;;;;;;5003829;28;20072;-58
2021/12/21 06:07:03;;;;;;;7.83;3.83;;;-3.20;99.90;;;;;;5002799;28;20026;-59
2021/12/21 06:09:30;;;;;;;8.20;4.13;;;-3.20;99.90;;;;;;5002781;28;21791;-55
2021/12/21 06:12:10;;;;;;;8.17;4.23;;;-3.20;99.90;;;;;;5005215;28;20106;-59
2021/12/21 06:27:40;;;;;;;10.97;4.10;;;-3.20;99.90;;;;;;5006122;28;20045;-59
2021/12/21 06:30:07;;;;;;;9.13;3.67;;;-3.20;99.90;;;;;;5006446;28;20454;-58
2021/12/21 06:32:33;;;;;;;8.33;3.53;;;-3.20;99.90;;;;;;5005897;28;20060;-55
2021/12/21 06:34:58;;;;;;;11.37;3.77;;;-3.20;99.90;;;;;;5008837;28;20030;-59
2021/12/21 06:37:24;;;;;;;9.03;3.00;;;-3.30;99.90;;;;;;5006615;28;20108;-57
2021/12/21 06:39:50;;;;;;;11.10;3.90;;;-3.30;99.90;;;;;;5002435;28;20048;-57
2021/12/21 06:42:16;;;;;;;7.97;3.50;;;-3.30;99.90;;;;;;5006440;28;20707;-58
2021/12/21 06:44:44;;;;;;;11.73;3.93;;;-3.30;99.90;;;;;;5007882;28;20033;-58
2021/12/21 06:52:40;;;;;;;;;;;-3.40;99.90;;;;;;5008218;28;20124;-59
2021/12/21 06:55:07;;;;;;;101.93;32.07;;;-3.40;99.90;;;;;;5006547;28;20194;-59
2021/12/21 06:57:34;;;;;;;48.63;19.67;;;-3.40;99.90;;;;;;5035621;23;20049;-58
2021/12/21 07:00:00;;;;;;;14.23;4.67;;;-3.50;99.90;;;;;;5008791;28;20463;-56
2021/12/21 07:02:26;;;;;;;13.33;6.57;;;-3.50;99.90;;;;;;5026833;28;20022;-50
2021/12/21 07:04:52;;;;;;;12.40;7.00;;;-3.40;99.90;;;;;;5023826;28;20041;-59
2021/12/21 07:07:18;;;;;;;12.90;5.10;;;-3.50;99.90;;;;;;5026474;28;20021;-55
2021/12/21 07:09:47;;;;;;;15.00;5.37;;;-3.40;99.90;;;;;;5013266;28;20017;-57
2021/12/21 07:20:07;;;;;;;10.13;2.90;;;-3.40;99.90;;;;;;5029786;28;20383;-54
2021/12/21 07:22:33;;;;;;;6.17;3.43;;;-3.30;99.90;;;;;;5027781;28;20021;-49
2021/12/21 07:24:58;;;;;;;8.40;3.07;;;-3.30;99.90;;;;;;5026603;28;20044;-59
2021/12/21 07:27:24;;;;;;;6.70;3.67;;;-3.30;99.90;;;;;;5029917;28;20026;-58
2021/12/21 07:29:49;;;;;;;12.27;4.33;;;-3.30;99.90;;;;;;5029718;28;20116;-56
2021/12/21 07:32:15;;;;;;;14.03;3.83;;;-3.30;99.90;;;;;;5027648;28;20136;-58
2021/12/21 07:34:41;;;;;;;9.17;4.87;;;-3.30;99.90;;;;;;5028916;28;20040;-56
2021/12/21 07:37:09;;;;;;;9.23;3.33;;;-3.40;99.90;;;;;;5029856;28;20029;-59
2021/12/21 07:39:36;;;;;;;6.97;3.33;;;-3.40;99.90;;;;;;5027168;28;20045;-58
2021/12/21 07:42:02;;;;;;;15.97;4.20;;;-3.40;99.90;;;;;;5029997;28;20112;-58
2021/12/21 07:44:28;;;;;;;10.80;4.40;;;-3.30;99.90;;;;;;5030486;28;20022;-57
2021/12/21 07:46:53;;;;;;;8.77;3.50;;;-3.30;99.90;;;;;;5028702;28;20399;-58
2021/12/21 07:49:19;;;;;;;10.37;4.10;;;-3.30;99.90;;;;;;5030726;28;20018;-57
2021/12/21 07:51:45;;;;;;;7.43;3.47;;;-3.30;99.90;;;;;;5028951;28;20105;-57
2021/12/21 07:54:10;;;;;;;8.23;4.27;;;-3.30;99.90;;;;;;5030626;28;20052;-58
2021/12/21 07:56:36;;;;;;;11.27;4.60;;;-3.30;99.90;;;;;;5026619;28;20460;-57
2021/12/21 07:59:04;;;;;;;18.60;7.77;;;-3.30;99.90;;;;;;5027944;28;20496;-50
2021/12/21 08:01:30;;;;;;;15.07;7.07;;;-3.30;99.90;;;;;;4995125;28;20057;-57
2021/12/21 08:03:57;;;;;;;13.57;6.40;;;-3.20;99.90;;;;;;5009502;28;20045;-56
2021/12/21 08:06:23;;;;;;;13.83;5.30;;;-3.20;99.90;;;;;;5008937;28;20104;-57
2021/12/21 08:08:50;;;;;;;13.60;6.80;;;-3.10;99.90;;;;;;5004608;28;20391;-57
2021/12/21 08:11:17;;;;;;;11.00;4.93;;;-3.10;99.90;;;;;;5007173;28;20036;-57
2021/12/21 08:13:46;;;;;;;15.30;7.00;;;-3.00;99.90;;;;;;5010337;28;20025;-58
2021/12/21 08:16:12;;;;;;;14.73;6.70;;;-3.10;99.90;;;;;;5009400;28;20033;-58
2021/12/21 08:18:38;;;;;;;13.90;5.60;;;-3.10;99.90;;;;;;5009268;28;20049;-54
2021/12/21 08:21:04;;;;;;;18.93;8.03;;;-3.10;99.90;;;;;;5004049;28;20037;-55
2021/12/21 08:23:30;;;;;;;19.10;8.60;;;-3.10;99.90;;;;;;5008956;28;20041;-56
2021/12/21 08:25:56;;;;;;;20.70;8.23;;;-3.10;99.90;;;;;;5010375;28;20026;-57
2021/12/21 08:28:23;;;;;;;20.83;7.87;;;-3.20;99.90;;;;;;5006724;28;20431;-57
2021/12/21 08:30:49;;;;;;;15.03;7.57;;;-3.20;99.90;;;;;;5008421;28;20026;-56
2021/12/21 08:33:15;;;;;;;13.33;5.53;;;-3.20;99.90;;;;;;5009331;28;20037;-57
2021/12/21 08:35:41;;;;;;;12.50;5.87;;;-3.20;99.90;;;;;;5010068;28;20029;-57
2021/12/21 08:38:13;;;;;;;14.27;6.90;;;-3.20;99.90;;;;;;5008999;28;20026;-57
2021/12/21 08:40:40;;;;;;;15.07;6.47;;;-3.10;99.90;;;;;;5007110;28;20026;-53
2021/12/21 08:43:13;;;;;;;8.87;3.47;;;-3.10;99.90;;;;;;5006095;28;20033;-56
2021/12/21 08:45:41;;;;;;;8.43;3.60;;;-3.10;99.90;;;;;;5010237;28;20729;-58
2021/12/21 08:48:07;;;;;;;11.67;4.10;;;-3.00;99.90;;;;;;5010070;28;20086;-57
2021/12/21 08:50:34;;;;;;;11.20;4.90;;;-2.90;99.90;;;;;;5007030;28;20472;-56
2021/12/21 08:53:01;;;;;;;10.07;4.33;;;-2.90;99.90;;;;;;5006190;28;20080;-57
2021/12/21 08:55:27;;;;;;;11.77;3.80;;;-2.80;99.90;;;;;;5009946;28;20410;-58
2021/12/21 08:57:53;;;;;;;12.70;4.80;;;-2.80;99.90;;;;;;5008336;28;20033;-57
2021/12/21 09:00:18;;;;;;;12.97;4.50;;;-2.70;99.90;;;;;;4991059;28;20057;-56
2021/12/21 09:02:44;;;;;;;7.43;3.60;;;-2.70;99.90;;;;;;5007948;28;20033;-58
2021/12/21 09:05:14;;;;;;;12.70;3.90;;;-2.60;99.90;;;;;;5008553;28;20022;-58
2021/12/21 09:07:39;;;;;;;13.60;4.07;;;-2.60;99.90;;;;;;5009566;28;20026;-53
2021/12/21 09:10:08;;;;;;;10.80;3.60;;;-2.50;99.90;;;;;;5006930;28;20076;-55
2021/12/21 09:12:34;;;;;;;9.87;4.57;;;-2.50;99.90;;;;;;5008317;28;20076;-54
2021/12/21 09:15:00;;;;;;;13.77;4.73;;;-2.40;99.90;;;;;;5007883;28;20045;-58
2021/12/21 09:17:28;;;;;;;8.70;3.93;;;-2.30;99.90;;;;;;5008717;28;20642;-59
2021/12/21 09:19:54;;;;;;;9.63;4.37;;;-2.20;99.90;;;;;;5009710;28;20088;-57
2021/12/21 09:22:19;;;;;;;12.60;5.63;;;-2.10;99.90;;;;;;5009313;28;20101;-57
2021/12/21 09:24:45;;;;;;;10.90;3.93;;;-2.00;99.90;;;;;;5010639;28;20121;-55
2021/12/21 09:27:11;;;;;;;10.73;4.67;;;-1.90;99.90;;;;;;5008978;28;20057;-56
2021/12/21 09:29:38;;;;;;;7.57;3.77;;;-1.90;99.90;;;;;;5008142;28;20113;-56
2021/12/21 09:32:12;;;;;;;14.70;3.73;;;-1.80;99.90;;;;;;5008613;28;20514;-55
2021/12/21 09:34:38;;;;;;;10.75;4.18;;;-1.70;99.90;;;;;;5005134;28;20092;-56
2021/12/21 09:37:04;;;;;;;10.77;3.70;;;-1.70;99.90;;;;;;5007118;28;20041;-56
2021/12/21 09:39:30;;;;;;;11.93;4.40;;;-1.60;99.90;;;;;;5006971;28;20049;-56
2021/12/21 09:41:56;;;;;;;11.63;4.83;;;-1.50;99.90;;;;;;5008407;28;20026;-59
2021/12/21 09:44:21;;;;;;;10.83;4.37;;;-1.40;99.90;;;;;;5003209;28;20450;-57
2021/12/21 09:46:47;;;;;;;8.87;4.07;;;-1.30;99.90;;;;;;5007905;28;20100;-59
2021/12/21 09:49:15;;;;;;;11.90;4.63;;;-1.20;99.90;;;;;;5006500;28;20679;-58
2021/12/21 09:51:41;;;;;;;11.07;3.83;;;-1.10;99.90;;;;;;5008224;28;20034;-57
2021/12/21 09:54:08;;;;;;;12.23;4.47;;;-1.00;99.90;;;;;;5008033;28;20095;-59
2021/12/21 09:56:34;;;;;;;9.10;3.73;;;-0.90;99.90;;;;;;5001980;28;20033;-57
2021/12/21 09:59:01;;;;;;;12.93;3.87;;;-0.90;99.90;;;;;;5001603;28;20030;-56
2021/12/21 10:01:27;;;;;;;10.07;4.33;;;-0.90;99.90;;;;;;4988654;28;20046;-57
2021/12/21 10:03:53;;;;;;;12.27;6.03;;;-0.90;99.90;;;;;;5002570;28;20030;-57
2021/12/21 10:06:18;;;;;;;12.23;4.57;;;-1.00;99.90;;;;;;4999287;28;20437;-57
2021/12/21 10:08:44;;;;;;;10.17;4.50;;;-1.00;99.90;;;;;;5005771;28;20025;-58
2021/12/21 10:11:19;;;;;;;8.80;4.13;;;-1.00;99.90;;;;;;5003584;28;20479;-61
2021/12/21 10:13:44;;;;;;;7.47;3.50;;;-1.00;99.90;;;;;;5000924;28;20034;-58
2021/12/21 10:16:10;;;;;;;10.50;4.03;;;-0.90;99.90;;;;;;5002348;28;20045;-58
2021/12/21 10:18:41;;;;;;;9.27;4.73;;;-0.90;99.90;;;;;;5005527;28;20565;-58
2021/12/21 10:21:08;;;;;;;12.57;4.13;;;-0.90;99.90;;;;;;5005677;28;20034;-57
2021/12/21 10:23:39;;;;;;;8.53;3.07;;;-0.80;99.90;;;;;;5006900;28;20040;-57
2021/12/21 10:26:08;;;;;;;8.40;3.77;;;-0.70;99.90;;;;;;5005179;28;20392;-58
2021/12/21 10:28:41;;;;;;;10.07;3.50;;;-0.60;99.90;;;;;;5005956;28;20022;-56
2021/12/21 10:31:13;;;;;;;9.32;4.70;;;-0.60;99.90;;;;;;5006543;28;20790;-58
2021/12/21 10:33:44;;;;;;;6.47;2.53;;;-0.50;99.90;;;;;;5004561;28;20042;-56
2021/12/21 10:36:10;;;;;;;8.75;3.03;;;-0.50;99.90;;;;;;5005506;28;20491;-58
2021/12/21 10:38:51;;;;;;;6.00;2.67;;;-0.40;99.90;;;;;;5007018;28;20087;-56
2021/12/21 10:41:22;;;;;;;13.60;3.23;;;-0.40;99.90;;;;;;5004790;28;20030;-59
2021/12/21 10:44:06;;;;;;;8.00;3.30;;;-0.30;99.90;;;;;;5005840;28;20026;-55
2021/12/21 10:46:34;;;;;;;10.65;3.40;;;-0.20;99.90;;;;;;5003268;28;20037;-60
2021/12/21 10:49:26;;;;;;;6.22;3.22;;;-0.20;99.90;;;;;;5005548;28;20112;-57
2021/12/21 10:51:56;;;;;;;7.88;3.08;;;-0.10;99.90;;;;;;5011359;28;20116;-58
2021/12/21 10:54:32;;;;;;;9.25;2.85;;;0.00;99.90;;;;;;5010779;28;20046;-57
2021/12/21 10:57:07;;;;;;;14.25;3.47;;;0.10;99.90;;;;;;5006888;28;20045;-54
2021/12/21 10:59:35;;;;;;;11.98;3.50;;;0.20;99.90;;;;;;5005141;28;20507;-59
2021/12/21 11:02:21;;;;;;;12.55;3.58;;;0.30;99.90;;;;;;5012689;28;20037;-58
2021/12/21 11:04:52;;;;;;;9.02;3.42;;;0.40;99.90;;;;;;5008811;28;20065;-58
2021/12/21 11:08:07;;;;;;;9.10;3.45;;;0.40;99.90;;;;;;5006300;28;20030;-59
2021/12/21 11:10:17;;;;;;;12.30;2.70;;;0.40;99.90;;;;;;5007063;28;20419;-56
2021/12/21 11:12:56;;;;;;;6.78;3.08;;;0.50;99.90;;;;;;5008093;28;20083;-57
2021/12/21 11:15:48;;;;;;;8.23;2.47;;;0.50;99.90;;;;;;5009997;28;20538;-59
2021/12/21 11:18:19;;;;;;;7.50;2.83;;;0.60;99.90;;;;;;5007164;28;20033;-56
2021/12/21 11:20:48;;;;;;;6.40;2.90;;;0.60;99.90;;;;;;5006827;28;20065;-57
2021/12/21 11:23:15;;;;;;;12.82;4.43;;;0.60;99.90;;;;;;5009656;28;20030;-55
2021/12/21 11:25:42;;;;;;;6.45;3.13;;;0.70;99.90;;;;;;5005582;28;20030;-57
2021/12/21 11:28:11;;;;;;;6.57;2.60;;;0.70;99.90;;;;;;5009249;28;20037;-56
2021/12/21 11:30:37;;;;;;;12.30;3.15;;;0.70;99.90;;;;;;5011096;28;20475;-57
2021/12/21 11:33:08;;;;;;;5.47;2.63;;;0.80;99.90;;;;;;5010685;28;20042;-54
2021/12/21 11:38:06;;;;;;;8.25;2.90;;;0.90;99.90;;;;;;5011708;28;20022;-54
2021/12/21 11:40:35;;;;;;;6.50;2.25;;;1.00;99.90;;;;;;5008795;28;20022;-56
2021/12/21 11:43:32;;;;;;;9.10;2.65;;;1.10;99.90;;;;;;5005867;28;20053;-57
2021/12/21 11:45:59;;;;;;;10.95;2.83;;;1.10;99.90;;;;;;5003414;28;20078;-55
2021/12/21 11:48:59;;;;;;;7.72;2.70;;;1.10;99.90;;;;;;5005636;28;20049;-52
2021/12/21 11:51:27;;;;;;;6.38;2.50;;;1.10;99.90;;;;;;5006190;28;20551;-58
2021/12/21 11:53:54;;;;;;;8.40;2.35;;;1.10;99.90;;;;;;5003524;28;20040;-56
2021/12/21 11:56:23;;;;;;;9.45;2.00;;;1.20;99.90;;;;;;4997379;28;20018;-55
2021/12/21 11:58:51;;;;;;;6.13;2.15;;;1.20;99.90;;;;;;5005238;28;20049;-59
2021/12/21 12:01:20;;;;;;;6.47;1.95;;;1.10;99.90;;;;;;5005436;28;20027;-58
2021/12/21 12:03:59;;;;;;;8.05;2.13;;;1.20;99.90;;;;;;5005793;28;20034;-57
2021/12/21 12:06:26;;;;;;;6.35;2.25;;;1.20;99.90;;;;;;5010794;28;20034;-59
2021/12/21 12:09:04;;;;;;;6.82;2.53;;;1.30;99.90;;;;;;5007845;28;20022;-57
2021/12/21 12:11:39;;;;;;;10.05;1.73;;;1.40;99.90;;;;;;5009466;28;20434;-56
2021/12/21 12:14:12;;;;;;;6.70;2.30;;;1.40;99.90;;;;;;5008263;28;20120;-58
2021/12/21 12:16:47;;;;;;;9.10;2.60;;;1.40;99.90;;;;;;5009260;28;20029;-56
2021/12/21 12:19:16;;;;;;;3.17;1.90;;;1.50;99.90;;;;;;5009698;28;20042;-59
2021/12/21 12:21:53;;;;;;;4.53;1.90;;;1.50;99.90;;;;;;5011049;28;20071;-57
2021/12/21 12:24:20;;;;;;;11.05;3.40;;;1.50;99.90;;;;;;5010401;28;20161;-57
2021/12/21 12:27:03;;;;;;;5.47;1.92;;;1.60;99.90;;;;;;5010704;28;20122;-61
2021/12/21 12:29:29;;;;;;;8.52;2.15;;;1.60;99.90;;;;;;5008417;28;20373;-57
2021/12/21 12:32:07;;;;;;;6.05;2.65;;;1.50;99.90;;;;;;5009645;28;20065;-57
2021/12/21 12:34:36;;;;;;;6.35;2.08;;;1.50;99.90;;;;;;5009275;28;20030;-58
2021/12/21 12:37:23;;;;;;;5.38;1.88;;;1.50;99.90;;;;;;5008571;28;20025;-59
2021/12/21 12:39:51;;;;;;;4.50;1.40;;;1.60;99.90;;;;;;5006961;28;20038;-58
2021/12/21 12:42:29;;;;;;;6.63;1.90;;;1.60;99.90;;;;;;5009577;28;20030;-59
2021/12/21 12:45:18;;;;;;;10.30;3.55;;;1.60;99.90;;;;;;5000995;28;20033;-59
2021/12/21 12:47:49;;;;;;;5.95;1.95;;;1.60;99.90;;;;;;5002179;28;20031;-59
2021/12/21 12:50:21;;;;;;;5.68;2.03;;;1.60;99.90;;;;;;5004462;28;20547;-56
2021/12/21 12:53:01;;;;;;;5.07;2.95;;;1.50;99.90;;;;;;5002300;28;20483;-58
2021/12/21 12:55:44;;;;;;;9.95;3.88;;;1.50;99.90;;;;;;5006403;28;20026;-57
2021/12/21 12:58:22;;;;;;;14.32;4.63;;;1.50;99.90;;;;;;5009224;28;20028;-59
2021/12/21 13:01:12;;;;;;;12.65;3.97;;;1.60;99.90;;;;;;5009856;28;20026;-55
2021/12/21 13:03:42;;;;;;;9.27;3.22;;;1.60;99.90;;;;;;5007965;28;20072;-57
2021/12/21 13:06:17;;;;;;;8.32;3.10;;;1.60;99.90;;;;;;5009676;28;20030;-58
2021/12/21 13:08:43;;;;;;;8.00;3.28;;;1.60;99.90;;;;;;5006747;28;20034;-56
2021/12/21 13:11:11;;;;;;;6.28;2.58;;;1.60;99.90;;;;;;5009951;28;20056;-57
2021/12/21 13:13:41;;;;;;;8.38;2.83;;;1.60;99.90;;;;;;5007625;28;20055;-58
2021/12/21 13:16:11;;;;;;;24.73;10.55;;;1.60;99.90;;;;;;5007543;28;20430;-57
2021/12/21 13:18:46;;;;;;;14.98;4.78;;;1.60;99.90;;;;;;5007152;28;20072;-58
2021/12/21 13:21:22;;;;;;;6.05;2.80;;;1.60;99.90;;;;;;5009301;28;20022;-55
2021/12/21 13:24:00;;;;;;;10.48;3.45;;;1.70;99.90;;;;;;5009052;28;20037;-58
2021/12/21 13:26:35;;;;;;;11.32;4.75;;;1.60;99.90;;;;;;4999551;28;20029;-58
2021/12/21 13:29:01;;;;;;;14.25;4.75;;;1.60;99.90;;;;;;5004149;28;20112;-58
2021/12/21 13:31:27;;;;;;;11.15;4.40;;;1.50;99.90;;;;;;5004230;28;20151;-55
2021/12/21 13:33:55;;;;;;;6.47;1.92;;;1.50;99.90;;;;;;5003198;28;20119;-53
2021/12/21 13:36:30;;;;;;;4.65;1.63;;;1.60;99.90;;;;;;5004573;28;20052;-57
2021/12/21 13:38:56;;;;;;;4.53;1.63;;;1.70;99.90;;;;;;5009151;28;20575;-60
2021/12/21 13:41:22;;;;;;;4.63;1.90;;;1.70;99.90;;;;;;5010849;28;20068;-57
2021/12/21 13:43:57;;;;;;;5.85;1.55;;;1.80;99.90;;;;;;5010650;28;20661;-59
2021/12/21 13:46:23;;;;;;;5.47;1.58;;;1.80;99.90;;;;;;4986636;28;20119;-60
2021/12/21 13:48:55;;;;;;;9.43;1.48;;;1.80;99.90;;;;;;5005121;28;20022;-59
2021/12/21 13:51:22;;;;;;;8.98;4.10;;;1.80;99.90;;;;;;5005984;28;20196;-58
2021/12/21 13:53:51;;;;;;;3.90;1.50;;;1.90;99.90;;;;;;5009452;28;20573;-60
2021/12/21 13:56:20;;;;;;;5.53;2.33;;;1.90;99.90;;;;;;5008780;28;20053;-58